createdAt,value
2019-02-26T00:01:01.535Z,3.12
2019-02-26T00:03:35.420Z,3.12
2019-02-26T00:06:07.817Z,2.75
2019-02-26T00:08:40.105Z,2.65
2019-02-26T00:11:12.595Z,2.83
2019-02-26T00:13:44.847Z,2.77
2019-02-26T00:16:18.384Z,2.85
2019-02-26T00:18:51.065Z,2.57
2019-02-26T00:21:24.424Z,2.90
2019-02-26T00:23:57.274Z,2.83
2019-02-26T00:26:29.521Z,2.70
2019-02-26T00:29:03.597Z,2.75
2019-02-26T00:31:35.753Z,3.20
2019-02-26T00:34:08.407Z,2.85
2019-02-26T00:36:41.982Z,3.13
2019-02-26T00:39:14.378Z,2.90
2019-02-26T00:41:49.327Z,2.77
2019-02-26T00:44:21.192Z,2.92
2019-02-26T00:46:55.706Z,2.55
2019-02-26T00:49:30.193Z,2.22
2019-02-26T00:52:04.009Z,2.37
2019-02-26T00:54:36.639Z,2.20
2019-02-26T00:57:11.554Z,1.87
2019-02-26T00:59:44.078Z,1.95
2019-02-26T01:02:16.850Z,2.60
2019-02-26T01:04:50.870Z,2.30
2019-02-26T01:07:23.858Z,2.35
2019-02-26T01:09:59.106Z,2.42
2019-02-26T01:12:32.909Z,2.15
2019-02-26T01:15:09.400Z,2.40
2019-02-26T01:17:42.208Z,1.85
2019-02-26T01:20:16.131Z,1.90
2019-02-26T01:22:48.399Z,1.55
2019-02-26T01:25:22.891Z,1.98
2019-02-26T01:27:56.288Z,1.75
2019-02-26T01:30:29.388Z,2.00
2019-02-26T01:33:03.396Z,1.70
2019-02-26T01:35:37.751Z,1.80
2019-02-26T01:38:12.063Z,2.10
2019-02-26T01:40:46.010Z,2.27
2019-02-26T01:43:18.106Z,1.80
2019-02-26T01:45:50.821Z,2.10
2019-02-26T01:48:24.349Z,1.90
2019-02-26T01:50:57.435Z,1.95
2019-02-26T01:53:30.576Z,2.95
2019-02-26T01:56:05.111Z,2.25
2019-02-26T01:58:36.782Z,1.52
2019-02-26T02:01:09.968Z,1.77
2019-02-26T02:03:44.838Z,1.95
2019-02-26T02:06:18.157Z,1.57
2019-02-26T02:08:52.494Z,1.72
2019-02-26T02:11:28.438Z,2.25
2019-02-26T02:14:01.848Z,2.80
2019-02-26T02:16:33.577Z,3.12
2019-02-26T02:19:05.934Z,3.52
2019-02-26T02:21:38.175Z,3.35
2019-02-26T02:24:12.654Z,3.30
2019-02-26T02:26:47.455Z,3.45
2019-02-26T02:29:19.173Z,2.20
2019-02-26T02:31:54.646Z,2.30
2019-02-26T02:34:29.318Z,2.25
2019-02-26T02:37:00.256Z,2.20
2019-02-26T02:39:32.593Z,1.80
2019-02-26T02:42:04.815Z,2.33
2019-02-26T02:44:39.031Z,2.30
2019-02-26T02:47:11.347Z,2.37
2019-02-26T02:49:44.377Z,2.50
2019-02-26T02:52:16.677Z,2.40
2019-02-26T02:54:50.028Z,1.63
2019-02-26T02:57:24.220Z,1.87
2019-02-26T02:59:59.504Z,2.12
2019-02-26T03:02:31.118Z,1.60
2019-02-26T03:05:04.439Z,2.00
2019-02-26T03:07:36.661Z,1.17
2019-02-26T03:10:12.089Z,1.50
2019-02-26T03:12:48.598Z,1.80
2019-02-26T03:15:18.412Z,1.90
2019-02-26T03:17:50.645Z,1.42
2019-02-26T03:20:24.723Z,2.12
2019-02-26T03:22:56.872Z,1.62
2019-02-26T03:25:29.278Z,3.17
2019-02-26T03:28:01.561Z,4.65
2019-02-26T03:30:38.773Z,4.75
2019-02-26T03:33:07.819Z,4.25
2019-02-26T03:35:40.141Z,5.15
2019-02-26T03:38:12.429Z,5.08
2019-02-26T03:40:44.702Z,4.85
2019-02-26T03:43:16.948Z,4.92
2019-02-26T03:45:49.202Z,4.42
2019-02-26T03:48:21.442Z,3.52
2019-02-26T03:50:53.702Z,3.30
2019-02-26T03:53:28.149Z,2.65
2019-02-26T03:56:04.203Z,2.47
2019-02-26T03:58:33.853Z,2.85
2019-02-26T04:01:08.406Z,2.58
2019-02-26T04:03:42.366Z,2.75
2019-02-26T04:06:14.131Z,2.60
2019-02-26T04:08:48.591Z,2.95
2019-02-26T04:11:22.817Z,3.42
2019-02-26T04:13:56.608Z,3.67
2019-02-26T04:16:29.865Z,4.10
2019-02-26T04:19:02.441Z,4.25
2019-02-26T04:21:52.491Z,4.10
2019-02-26T04:24:26.004Z,3.58
2019-02-26T04:27:11.998Z,3.58
2019-02-26T04:29:46.900Z,2.90
2019-02-26T04:32:38.107Z,3.10
2019-02-26T04:35:10.971Z,3.10
2019-02-26T04:37:44.775Z,3.20
2019-02-26T04:40:18.530Z,2.83
2019-02-26T04:42:52.310Z,2.90
2019-02-26T04:45:28.743Z,3.45
2019-02-26T04:48:02.547Z,3.67
2019-02-26T04:50:38.701Z,3.05
2019-02-26T04:53:11.092Z,2.72
2019-02-26T04:55:44.906Z,3.20
2019-02-26T04:58:18.437Z,2.80
2019-02-26T05:00:51.420Z,2.75
2019-02-26T05:03:23.672Z,2.58
2019-02-26T05:05:57.202Z,2.83
2019-02-26T05:08:32.252Z,3.17
2019-02-26T05:11:03.887Z,2.70
2019-02-26T05:13:36.152Z,2.80
2019-02-26T05:16:09.307Z,3.33
2019-02-26T05:18:43.820Z,3.02
2019-02-26T05:21:17.570Z,3.10
2019-02-26T05:23:52.416Z,3.08
2019-02-26T05:26:23.790Z,3.50
2019-02-26T05:29:03.273Z,3.62
2019-02-26T05:31:37.672Z,3.47
2019-02-26T05:34:09.473Z,3.72
2019-02-26T05:36:45.417Z,3.77
2019-02-26T05:39:20.327Z,4.47
2019-02-26T05:41:52.358Z,3.42
2019-02-26T05:44:23.682Z,4.08
2019-02-26T05:46:58.446Z,4.03
2019-02-26T05:49:33.849Z,3.60
2019-02-26T05:52:04.747Z,3.77
2019-02-26T05:54:37.978Z,4.03
2019-02-26T05:57:25.475Z,4.47
2019-02-26T05:59:44.281Z,4.30
2019-02-26T06:02:19.141Z,4.83
2019-02-26T06:04:50.505Z,4.53
2019-02-26T06:07:27.001Z,4.85
2019-02-26T06:09:59.074Z,4.30
2019-02-26T06:12:32.752Z,4.20
2019-02-26T06:15:08.019Z,4.78
2019-02-26T06:17:43.094Z,3.70
2019-02-26T06:20:15.607Z,4.33
2019-02-26T06:22:47.954Z,4.30
2019-02-26T06:25:24.040Z,4.58
2019-02-26T06:27:54.179Z,4.58
2019-02-26T06:30:26.505Z,4.47
2019-02-26T06:33:02.044Z,4.72
2019-02-26T06:35:33.755Z,4.60
2019-02-26T06:38:09.025Z,4.35
2019-02-26T06:40:42.305Z,4.10
2019-02-26T06:43:14.642Z,4.20
2019-02-26T06:45:47.824Z,4.00
2019-02-26T06:48:24.395Z,4.17
2019-02-26T06:50:55.630Z,4.22
2019-02-26T06:53:28.085Z,4.20
2019-02-26T06:56:00.768Z,4.70
2019-02-26T06:58:33.511Z,4.15
2019-02-26T07:01:07.641Z,4.70
2019-02-26T07:03:40.885Z,4.50
2019-02-26T07:06:13.195Z,4.30
2019-02-26T07:08:47.208Z,4.35
2019-02-26T07:11:19.416Z,4.33
2019-02-26T07:13:53.658Z,3.90
2019-02-26T07:16:25.627Z,4.20
2019-02-26T07:18:58.986Z,3.55
2019-02-26T07:21:31.857Z,4.92
2019-02-26T07:24:04.086Z,4.37
2019-02-26T07:26:38.510Z,4.15
2019-02-26T07:29:12.611Z,4.42
2019-02-26T07:31:44.313Z,4.80
2019-02-26T07:34:18.255Z,3.65
2019-02-26T07:36:52.496Z,3.55
2019-02-26T07:39:24.561Z,3.83
2019-02-26T07:41:56.816Z,3.70
2019-02-26T07:44:29.075Z,3.92
2019-02-26T07:47:03.671Z,4.25
2019-02-26T07:49:35.345Z,4.53
2019-02-26T07:52:08.730Z,3.65
2019-02-26T07:54:42.797Z,3.47
2019-02-26T07:57:15.730Z,3.77
2019-02-26T07:59:50.220Z,3.67
2019-02-26T08:02:22.570Z,4.80
2019-02-26T08:04:54.796Z,4.50
2019-02-26T08:07:28.471Z,4.20
2019-02-26T08:10:01.003Z,4.30
2019-02-26T08:12:35.540Z,4.50
2019-02-26T08:15:10.443Z,4.45
2019-02-26T08:17:45.583Z,3.70
2019-02-26T08:20:16.563Z,4.25
2019-02-26T08:22:49.577Z,4.90
2019-02-26T08:25:22.780Z,4.65
2019-02-26T08:27:56.597Z,5.03
2019-02-26T08:30:29.071Z,4.75
2019-02-26T08:33:04.327Z,4.87
2019-02-26T08:35:35.288Z,5.55
2019-02-26T08:38:07.540Z,5.10
2019-02-26T08:40:39.787Z,5.45
2019-02-26T08:43:12.031Z,5.37
2019-02-26T08:45:44.266Z,4.70
2019-02-26T08:48:17.243Z,4.62
2019-02-26T08:50:50.460Z,4.53
2019-02-26T08:53:24.834Z,3.92
2019-02-26T08:55:58.766Z,4.35
2019-02-26T08:58:30.641Z,4.92
2019-02-26T09:01:02.881Z,5.08
2019-02-26T09:03:40.645Z,4.78
2019-02-26T09:06:13.342Z,5.15
2019-02-26T09:08:43.274Z,5.70
2019-02-26T09:11:15.561Z,4.47
2019-02-26T09:13:47.796Z,4.30
2019-02-26T09:16:22.180Z,4.95
2019-02-26T09:18:54.028Z,4.92
2019-02-26T09:21:26.294Z,4.75
2019-02-26T09:24:00.054Z,4.80
2019-02-26T09:26:32.519Z,5.35
2019-02-26T09:29:04.771Z,6.12
2019-02-26T09:31:37.056Z,6.25
2019-02-26T09:34:09.320Z,7.12
2019-02-26T09:36:41.574Z,8.70
2019-02-26T09:39:15.452Z,7.42
2019-02-26T09:41:47.746Z,6.72
2019-02-26T09:44:19.983Z,8.53
2019-02-26T09:46:52.238Z,5.28
2019-02-26T09:49:26.211Z,6.17
2019-02-26T09:51:59.058Z,5.78
2019-02-26T09:54:34.898Z,5.67
2019-02-26T09:57:06.434Z,5.53
2019-02-26T09:59:38.682Z,5.53
2019-02-26T10:02:10.927Z,5.10
2019-02-26T10:04:44.914Z,5.30
2019-02-26T10:07:17.123Z,5.75
2019-02-26T10:09:49.458Z,5.92
2019-02-26T10:12:21.700Z,6.28
2019-02-26T10:14:54.821Z,5.95
2019-02-26T10:17:27.938Z,8.45
2019-02-26T10:20:01.755Z,8.88
2019-02-26T10:22:36.297Z,8.10
2019-02-26T10:25:09.333Z,7.12
2019-02-26T10:27:43.197Z,6.42
2019-02-26T10:30:16.337Z,6.25
2019-02-26T10:32:48.678Z,6.25
2019-02-26T10:35:32.470Z,5.67
2019-02-26T10:37:59.725Z,4.95
2019-02-26T10:40:35.597Z,5.10
2019-02-26T10:43:05.088Z,5.15
2019-02-26T10:45:41.557Z,5.50
2019-02-26T10:48:13.302Z,5.33
2019-02-26T10:50:48.884Z,5.80
2019-02-26T10:53:22.046Z,6.45
2019-02-26T10:55:53.243Z,5.85
2019-02-26T10:58:25.520Z,6.08
2019-02-26T11:00:59.421Z,6.10
2019-02-26T11:03:35.342Z,6.47
2019-02-26T11:06:07.281Z,6.40
2019-02-26T11:08:39.702Z,5.80
2019-02-26T11:11:13.055Z,6.37
2019-02-26T11:13:50.990Z,6.80
2019-02-26T11:16:25.180Z,6.58
2019-02-26T11:18:54.772Z,5.97
2019-02-26T11:21:27.023Z,6.50
2019-02-26T11:24:00.727Z,6.15
2019-02-26T11:26:35.205Z,6.60
2019-02-26T11:29:07.189Z,6.25
2019-02-26T11:31:41.684Z,6.92
2019-02-26T11:34:13.545Z,6.35
2019-02-26T11:36:45.844Z,6.08
2019-02-26T11:39:18.103Z,5.97
2019-02-26T11:41:53.477Z,6.28
2019-02-26T11:44:25.783Z,5.97
2019-02-26T11:46:58.358Z,6.33
2019-02-26T11:49:31.429Z,6.43
2019-02-26T11:52:04.368Z,7.10
2019-02-26T11:54:38.048Z,8.15
2019-02-26T11:57:12.925Z,7.80
2019-02-26T11:59:44.849Z,7.90
2019-02-26T12:02:25.271Z,7.10
2019-02-26T12:04:51.067Z,6.62
2019-02-26T12:07:25.595Z,6.50
2019-02-26T12:09:57.870Z,6.37
2019-02-26T12:12:33.688Z,5.75
2019-02-26T12:15:09.417Z,5.42
2019-02-26T12:17:40.792Z,5.58
2019-02-26T12:20:15.295Z,5.67
2019-02-26T12:22:49.813Z,5.47
2019-02-26T12:25:22.355Z,4.80
2019-02-26T12:27:54.582Z,4.37
2019-02-26T12:30:26.906Z,5.10
2019-02-26T12:32:59.149Z,4.37
2019-02-26T12:35:33.337Z,4.22
2019-02-26T12:38:17.302Z,4.37
2019-02-26T12:40:41.110Z,4.12
2019-02-26T12:43:16.297Z,4.33
2019-02-26T12:45:47.312Z,4.42
2019-02-26T12:48:22.619Z,3.90
2019-02-26T12:50:55.604Z,4.42
2019-02-26T12:53:27.687Z,2.90
2019-02-26T12:56:02.435Z,2.00
2019-02-26T12:58:33.875Z,1.90
2019-02-26T13:01:06.144Z,2.08
2019-02-26T13:03:39.878Z,2.35
2019-02-26T13:06:15.335Z,2.70
2019-02-26T13:08:49.075Z,3.17
2019-02-26T13:11:24.178Z,2.92
2019-02-26T13:13:54.368Z,4.87
2019-02-26T13:16:26.611Z,4.72
2019-02-26T13:19:03.778Z,6.35
2019-02-26T13:21:32.817Z,6.20
2019-02-26T13:24:11.690Z,5.17
2019-02-26T13:26:42.413Z,5.70
2019-02-26T13:29:13.002Z,5.70
2019-02-26T13:34:19.214Z,4.33
2019-02-26T13:36:55.989Z,3.70
2019-02-26T13:39:36.810Z,3.85
2019-02-26T13:42:09.154Z,3.05
2019-02-26T13:44:34.380Z,3.15
2019-02-26T13:47:06.635Z,3.40
2019-02-26T13:49:38.866Z,3.42
2019-02-26T13:52:11.132Z,3.12
2019-02-26T13:54:43.360Z,2.90
2019-02-26T13:57:15.617Z,2.67
2019-02-26T13:59:47.934Z,2.70
2019-02-26T14:02:20.265Z,2.83
2019-02-26T14:04:52.504Z,2.10
2019-02-26T14:07:24.763Z,1.20
2019-02-26T14:09:57.008Z,1.98
2019-02-26T14:12:29.252Z,0.70
2019-02-26T14:15:01.499Z,1.17
2019-02-26T14:17:33.727Z,1.07
2019-02-26T14:20:07.486Z,1.40
2019-02-26T14:22:39.751Z,1.00
2019-02-26T14:25:12.339Z,1.07
2019-02-26T14:27:44.671Z,0.90
2019-02-26T14:30:17.667Z,1.00
2019-02-26T14:32:49.934Z,1.22
2019-02-26T14:35:22.179Z,1.10
2019-02-26T14:37:54.438Z,1.27
2019-02-26T14:40:26.692Z,1.30
2019-02-26T14:42:58.926Z,1.35
2019-02-26T14:45:31.165Z,1.25
2019-02-26T14:48:03.422Z,1.82
2019-02-26T14:50:35.710Z,1.60
2019-02-26T14:53:08.019Z,1.20
2019-02-26T14:55:40.286Z,2.10
2019-02-26T14:58:12.567Z,1.87
2019-02-26T15:00:44.805Z,1.90
2019-02-26T15:03:17.054Z,2.15
2019-02-26T15:05:49.287Z,2.40
2019-02-26T15:08:21.558Z,2.37
2019-02-26T15:10:53.792Z,1.87
2019-02-26T15:13:26.019Z,1.70
2019-02-26T15:15:58.248Z,1.17
2019-02-26T15:18:30.500Z,2.10
2019-02-26T15:21:02.725Z,1.47
2019-02-26T15:23:35.669Z,1.45
2019-02-26T15:26:07.942Z,1.45
2019-02-26T15:28:40.174Z,1.47
2019-02-26T15:31:12.416Z,1.82
2019-02-26T15:33:44.665Z,1.55
2019-02-26T15:36:16.935Z,1.77
2019-02-26T15:38:49.168Z,1.92
2019-02-26T15:41:21.480Z,1.80
2019-02-26T15:43:54.476Z,1.32
2019-02-26T15:46:28.606Z,1.30
2019-02-26T15:49:02.694Z,1.10
2019-02-26T15:51:34.977Z,0.90
2019-02-26T15:54:07.213Z,1.10
2019-02-26T15:56:39.453Z,0.93
2019-02-26T15:59:11.705Z,1.30
2019-02-26T16:01:43.942Z,1.20
2019-02-26T16:04:16.187Z,1.20
2019-02-26T16:06:48.430Z,1.40
2019-02-26T16:09:20.669Z,1.32
2019-02-26T16:11:53.006Z,1.47
2019-02-26T16:14:25.246Z,1.35
2019-02-26T16:16:57.539Z,1.35
2019-02-26T16:19:29.780Z,2.20
2019-02-26T16:22:02.053Z,1.57
2019-02-26T16:24:34.279Z,1.12
2019-02-26T16:27:06.532Z,1.52
2019-02-26T16:29:38.758Z,1.15
2019-02-26T16:32:11.015Z,1.65
2019-02-26T16:34:43.254Z,1.82
2019-02-26T16:37:15.508Z,1.10
2019-02-26T16:39:47.787Z,1.42
2019-02-26T16:42:20.023Z,1.30
2019-02-26T16:44:52.262Z,1.95
2019-02-26T16:47:24.539Z,4.33
2019-02-26T16:50:02.114Z,1.40
2019-02-26T16:52:31.036Z,1.50
2019-02-26T16:55:04.159Z,1.22
2019-02-26T16:57:36.585Z,1.40
2019-02-26T17:00:16.278Z,1.25
2019-02-26T17:02:51.654Z,1.47
2019-02-26T17:05:24.044Z,1.25
2019-02-26T17:07:56.299Z,1.60
2019-02-26T17:10:30.280Z,1.67
2019-02-26T17:13:03.134Z,1.80
2019-02-26T17:15:36.398Z,2.58
2019-02-26T17:18:09.898Z,1.45
2019-02-26T17:20:42.676Z,1.55
2019-02-26T17:23:14.932Z,1.60
2019-02-26T17:25:47.260Z,1.87
2019-02-26T17:28:19.795Z,1.65
2019-02-26T17:30:52.076Z,1.77
2019-02-26T17:33:24.357Z,1.75
2019-02-26T17:35:56.586Z,1.92
2019-02-26T17:38:28.847Z,1.87
2019-02-26T17:41:01.079Z,2.17
2019-02-26T17:43:33.328Z,2.00
2019-02-26T17:46:07.870Z,2.00
2019-02-26T17:48:43.473Z,2.00
2019-02-26T17:51:13.489Z,1.60
2019-02-26T17:53:45.755Z,1.87
2019-02-26T17:56:18.013Z,1.92
2019-02-26T17:58:50.556Z,1.85
2019-02-26T18:01:22.823Z,1.75
2019-02-26T18:03:55.141Z,2.08
2019-02-26T18:06:27.383Z,1.80
2019-02-26T18:08:59.623Z,1.87
2019-02-26T18:11:31.855Z,1.75
2019-02-26T18:14:04.095Z,2.05
2019-02-26T18:16:36.354Z,1.85
2019-02-26T18:19:12.140Z,1.85
2019-02-26T18:21:44.040Z,2.10
2019-02-26T18:24:16.784Z,1.87
2019-02-26T18:26:50.444Z,2.20
2019-02-26T18:29:25.306Z,1.90
2019-02-26T18:31:56.780Z,2.02
2019-02-26T18:34:29.055Z,2.27
2019-02-26T18:37:01.293Z,3.33
2019-02-26T18:39:33.551Z,2.20
2019-02-26T18:42:08.277Z,2.47
2019-02-26T18:44:39.765Z,1.98
2019-02-26T18:47:12.052Z,2.90
2019-02-26T18:49:44.279Z,2.30
2019-02-26T18:52:16.528Z,2.50
2019-02-26T18:54:48.758Z,3.30
2019-02-26T18:57:21.026Z,2.58
2019-02-26T18:59:54.114Z,2.77
2019-02-26T19:02:27.435Z,3.00
2019-02-26T19:04:59.681Z,2.70
2019-02-26T19:07:33.860Z,2.55
2019-02-26T19:10:11.967Z,2.58
2019-02-26T19:12:52.279Z,2.83
2019-02-26T19:15:31.305Z,2.40
2019-02-26T19:18:11.005Z,3.12
2019-02-26T19:20:44.343Z,3.70
2019-02-26T19:23:16.662Z,3.22
2019-02-26T19:25:48.889Z,3.75
2019-02-26T19:28:21.142Z,3.15
2019-02-26T19:30:53.394Z,2.85
2019-02-26T19:33:25.616Z,2.33
2019-02-26T19:35:57.846Z,2.92
2019-02-26T19:38:30.091Z,2.87
2019-02-26T19:41:03.864Z,2.70
2019-02-26T19:43:36.122Z,3.02
2019-02-26T19:46:08.430Z,2.77
2019-02-26T19:48:40.677Z,2.60
2019-02-26T19:51:12.922Z,2.37
2019-02-26T19:53:45.238Z,2.20
2019-02-26T19:56:17.462Z,2.72
2019-02-26T19:58:49.691Z,2.45
2019-02-26T20:01:25.594Z,2.65
2019-02-26T20:03:56.141Z,2.62
2019-02-26T20:06:28.389Z,2.62
2019-02-26T20:09:00.662Z,3.47
2019-02-26T20:11:32.909Z,3.02
2019-02-26T20:14:05.183Z,2.65
2019-02-26T20:16:37.419Z,2.83
2019-02-26T20:19:09.660Z,2.60
2019-02-26T20:21:41.899Z,2.90
2019-02-26T20:24:16.458Z,3.47
2019-02-26T20:26:49.958Z,4.05
2019-02-26T20:29:22.086Z,4.05
2019-02-26T20:31:55.763Z,4.17
2019-02-26T20:34:28.511Z,4.30
2019-02-26T20:37:00.815Z,4.22
2019-02-26T20:39:33.061Z,4.20
2019-02-26T20:42:05.318Z,4.40
2019-02-26T20:44:37.563Z,3.85
2019-02-26T20:47:09.801Z,3.50
2019-02-26T20:49:43.675Z,3.05
2019-02-26T20:52:16.038Z,3.22
2019-02-26T20:54:48.311Z,3.40
2019-02-26T20:57:20.576Z,3.40
2019-02-26T20:59:52.939Z,2.80
2019-02-26T21:02:25.179Z,3.12
2019-02-26T21:04:57.442Z,2.98
2019-02-26T21:07:29.697Z,3.10
2019-02-26T21:10:04.091Z,2.50
2019-02-26T21:12:36.324Z,2.85
2019-02-26T21:15:13.584Z,2.75
2019-02-26T21:17:44.126Z,2.40
2019-02-26T21:20:16.372Z,2.92
2019-02-26T21:22:49.586Z,2.72
2019-02-26T21:25:21.837Z,3.00
2019-02-26T21:27:54.101Z,2.83
2019-02-26T21:30:26.349Z,3.10
2019-02-26T21:32:58.730Z,3.25
2019-02-26T21:35:31.017Z,2.80
2019-02-26T21:38:05.774Z,2.70
2019-02-26T21:40:37.409Z,3.08
2019-02-26T21:43:10.562Z,3.00
2019-02-26T21:45:44.511Z,3.20
2019-02-26T21:48:16.808Z,3.25
2019-02-26T21:50:49.045Z,2.52
2019-02-26T21:53:21.284Z,3.15
2019-02-26T21:55:55.553Z,3.02
2019-02-26T21:58:27.500Z,3.10
2019-02-26T22:00:59.742Z,3.10
2019-02-26T22:03:32.885Z,3.10
2019-02-26T22:06:05.724Z,2.80
2019-02-26T22:08:38.627Z,2.80
2019-02-26T22:11:11.002Z,2.70
2019-02-26T22:13:43.224Z,2.85
2019-02-26T22:16:17.663Z,3.20
2019-02-26T22:18:49.436Z,3.35
2019-02-26T22:21:21.727Z,3.33
2019-02-26T22:23:53.986Z,3.40
2019-02-26T22:26:26.600Z,3.02
2019-02-26T22:28:58.833Z,3.95
2019-02-26T22:31:31.099Z,3.20
2019-02-26T22:34:03.322Z,3.42
2019-02-26T22:36:35.591Z,3.40
2019-02-26T22:39:09.420Z,3.40
2019-02-26T22:41:41.805Z,3.77
2019-02-26T22:44:14.029Z,3.52
2019-02-26T22:46:46.297Z,3.52
2019-02-26T22:49:20.708Z,3.42
2019-02-26T22:51:52.491Z,3.55
2019-02-26T22:54:24.787Z,3.65
2019-02-26T22:56:57.455Z,3.45
2019-02-26T22:59:29.699Z,3.20
2019-02-26T23:02:02.013Z,3.72
2019-02-26T23:04:34.247Z,3.58
2019-02-26T23:07:06.482Z,3.47
2019-02-26T23:09:38.911Z,3.55
2019-02-26T23:12:11.194Z,3.20
2019-02-26T23:14:43.537Z,3.33
2019-02-26T23:17:15.844Z,3.30
2019-02-26T23:19:48.149Z,3.58
2019-02-26T23:22:20.950Z,3.42
2019-02-26T23:24:54.409Z,2.98
2019-02-26T23:27:26.735Z,2.85
2019-02-26T23:29:58.970Z,2.75
2019-02-26T23:32:31.293Z,2.75
2019-02-26T23:35:05.009Z,2.92
2019-02-26T23:37:37.279Z,3.15
2019-02-26T23:40:10.480Z,3.17
2019-02-26T23:42:42.813Z,2.80
2019-02-26T23:45:15.500Z,3.27
2019-02-26T23:47:47.775Z,2.85
2019-02-26T23:50:20.036Z,2.75
2019-02-26T23:52:52.283Z,2.85
2019-02-26T23:55:24.991Z,2.65
2019-02-26T23:57:57.915Z,3.30
